createdAt,value
2022-08-28T00:02:25.227Z,101217.09
2022-08-28T00:04:51.836Z,101220.50
2022-08-28T00:07:18.556Z,101225.75
2022-08-28T00:09:44.894Z,101231.81
2022-08-28T00:12:12.330Z,101225.00
2022-08-28T00:14:39.269Z,101235.56
2022-08-28T00:17:05.670Z,101232.72
2022-08-28T00:19:36.651Z,101229.38
2022-08-28T00:22:05.402Z,101232.06
2022-08-28T00:24:31.849Z,101236.47
2022-08-28T00:27:16.905Z,101232.94
2022-08-28T00:29:44.994Z,101225.88
2022-08-28T00:32:11.323Z,101229.34
2022-08-28T00:34:38.656Z,101230.31
2022-08-28T00:37:05.173Z,101241.75
2022-08-28T00:39:32.416Z,101238.41
2022-08-28T00:41:59.112Z,101234.97
2022-08-28T00:44:27.792Z,101235.72
2022-08-28T00:46:56.795Z,101238.53
2022-08-28T00:49:26.246Z,101227.31
2022-08-28T00:52:08.468Z,101237.72
2022-08-28T00:54:58.613Z,101239.66
2022-08-28T00:57:32.105Z,101238.00
2022-08-28T00:59:58.710Z,101237.16
2022-08-28T01:02:26.491Z,101225.91
2022-08-28T01:04:53.646Z,101236.53
2022-08-28T01:07:23.092Z,101238.16
2022-08-28T01:09:53.864Z,101230.38
2022-08-28T01:12:28.390Z,101236.38
2022-08-28T01:14:59.882Z,101233.06
2022-08-28T01:17:31.152Z,101238.38
2022-08-28T01:20:02.841Z,101246.16
2022-08-28T01:22:37.212Z,101242.66
2022-08-28T01:25:07.070Z,101244.38
2022-08-28T01:27:34.075Z,101247.84
2022-08-28T01:30:00.467Z,101246.13
2022-08-28T01:32:31.935Z,101251.50
2022-08-28T01:34:59.140Z,101253.38
2022-08-28T01:37:25.644Z,101253.34
2022-08-28T01:39:52.139Z,101253.38
2022-08-28T01:42:18.612Z,101258.56
2022-08-28T01:44:45.036Z,101255.91
2022-08-28T01:47:11.443Z,101257.53
2022-08-28T01:49:37.819Z,101255.78
2022-08-28T01:52:04.656Z,101253.81
2022-08-28T01:54:31.577Z,101247.84
2022-08-28T01:56:58.414Z,101253.03
2022-08-28T01:59:24.803Z,101244.31
2022-08-28T02:01:51.170Z,101246.88
2022-08-28T02:04:17.718Z,101262.69
2022-08-28T02:06:44.139Z,101259.16
2022-08-28T02:09:14.370Z,101255.63
2022-08-28T02:11:43.058Z,101261.94
2022-08-28T02:14:13.060Z,101261.97
2022-08-28T02:16:39.448Z,101265.63
2022-08-28T02:19:06.029Z,101264.72
2022-08-28T02:21:32.481Z,101264.91
2022-08-28T02:23:59.003Z,101270.28
2022-08-28T02:26:25.939Z,101266.88
2022-08-28T02:28:52.308Z,101263.44
2022-08-28T02:31:18.761Z,101264.19
2022-08-28T02:33:45.713Z,101267.66
2022-08-28T02:36:14.484Z,101258.16
2022-08-28T02:38:42.087Z,101252.88
2022-08-28T02:41:09.105Z,101261.50
2022-08-28T02:43:35.661Z,101257.25
2022-08-28T02:46:02.853Z,101247.75
2022-08-28T02:48:35.529Z,101256.50
2022-08-28T02:51:09.021Z,101250.38
2022-08-28T02:53:36.383Z,101253.78
2022-08-28T02:56:04.708Z,101257.25
2022-08-28T02:58:32.655Z,101252.13
2022-08-28T03:01:07.363Z,101260.78
2022-08-28T03:03:34.058Z,101256.44
2022-08-28T03:06:02.908Z,101251.28
2022-08-28T03:08:31.478Z,101253.84
2022-08-28T03:10:58.524Z,101259.06
2022-08-28T03:13:27.299Z,101258.22
2022-08-28T03:15:55.863Z,101259.97
2022-08-28T03:18:23.300Z,101253.97
2022-08-28T03:20:49.668Z,101257.38
2022-08-28T03:23:27.975Z,101260.91
2022-08-28T03:26:08.883Z,101260.06
2022-08-28T03:28:45.042Z,101263.56
2022-08-28T03:31:14.370Z,101266.25
2022-08-28T03:33:42.766Z,101268.84
2022-08-28T03:36:15.578Z,101267.09
2022-08-28T03:38:42.171Z,101258.50
2022-08-28T03:41:14.429Z,101257.66
2022-08-28T03:43:41.685Z,101262.91
2022-08-28T03:46:13.622Z,101254.03
2022-08-28T03:48:42.241Z,101262.03
2022-08-28T03:51:15.745Z,101265.50
2022-08-28T03:53:44.006Z,101265.44
2022-08-28T03:56:13.596Z,101262.03
2022-08-28T03:58:41.043Z,101270.75
2022-08-28T04:01:08.322Z,101263.75
2022-08-28T04:03:35.273Z,101268.19
2022-08-28T04:06:01.846Z,101261.31
2022-08-28T04:08:29.388Z,101260.34
2022-08-28T04:10:56.362Z,101257.84
2022-08-28T04:13:23.304Z,101263.13
2022-08-28T04:16:00.964Z,101261.31
2022-08-28T04:18:28.976Z,101260.50
2022-08-28T04:21:05.496Z,101263.13
2022-08-28T04:23:31.976Z,101263.13
2022-08-28T04:25:58.345Z,101268.47
2022-08-28T04:28:25.807Z,101266.75
2022-08-28T04:30:54.522Z,101266.81
2022-08-28T04:33:22.172Z,101271.22
2022-08-28T04:35:49.125Z,101266.91
2022-08-28T04:38:15.763Z,101269.44
2022-08-28T04:40:43.079Z,101266.81
2022-08-28T04:43:09.589Z,101268.56
2022-08-28T04:45:43.653Z,101270.22
2022-08-28T04:48:13.511Z,101272.84
2022-08-28T04:50:45.735Z,101273.75
2022-08-28T04:53:13.438Z,101271.94
2022-08-28T04:55:52.316Z,101274.50
2022-08-28T04:58:20.552Z,101280.47
2022-08-28T05:00:51.859Z,101266.31
2022-08-28T05:03:18.366Z,101277.63
2022-08-28T05:05:47.760Z,101277.50
2022-08-28T05:08:15.891Z,101274.84
2022-08-28T05:10:43.252Z,101275.69
2022-08-28T05:13:11.758Z,101269.66
2022-08-28T05:15:44.456Z,101280.97
2022-08-28T05:18:13.522Z,101287.69
2022-08-28T05:20:42.821Z,101288.53
2022-08-28T05:23:10.016Z,101277.88
2022-08-28T05:25:38.261Z,101282.88
2022-08-28T05:28:05.908Z,101291.38
2022-08-28T05:30:35.469Z,101284.16
2022-08-28T05:33:02.004Z,101282.53
2022-08-28T05:35:28.345Z,101285.69
2022-08-28T05:37:54.856Z,101288.16
2022-08-28T05:40:22.275Z,101281.94
2022-08-28T05:42:49.994Z,101282.66
2022-08-28T05:45:16.905Z,101287.06
2022-08-28T05:47:43.845Z,101287.06
2022-08-28T05:50:13.541Z,101284.16
2022-08-28T05:52:43.975Z,101289.25
2022-08-28T05:55:12.733Z,101283.84
2022-08-28T05:57:39.894Z,101284.72
2022-08-28T06:00:07.842Z,101286.13
2022-08-28T06:02:35.016Z,101275.50
2022-08-28T06:05:02.505Z,101282.41
2022-08-28T06:07:29.019Z,101277.78
2022-08-28T06:09:55.690Z,101277.47
2022-08-28T06:12:22.335Z,101277.22
2022-08-28T06:14:49.190Z,101286.31
2022-08-28T06:17:16.346Z,101285.22
2022-08-28T06:19:49.847Z,101291.97
2022-08-28T06:22:16.255Z,101290.00
2022-08-28T06:24:42.756Z,101288.41
2022-08-28T06:27:09.119Z,101290.78
2022-08-28T06:29:35.563Z,101293.69
2022-08-28T06:32:04.334Z,101304.13
2022-08-28T06:34:31.349Z,101299.47
2022-08-28T06:36:57.785Z,101300.69
2022-08-28T06:39:24.208Z,101308.31
2022-08-28T06:41:50.668Z,101304.50
2022-08-28T06:44:19.827Z,101303.69
2022-08-28T06:46:49.955Z,101301.47
2022-08-28T06:49:16.701Z,101303.44
2022-08-28T06:51:43.711Z,101297.34
2022-08-28T06:54:10.565Z,101303.91
2022-08-28T06:56:38.229Z,101297.97
2022-08-28T06:59:05.415Z,101300.31
2022-08-28T07:01:35.271Z,101302.56
2022-08-28T07:04:06.686Z,101301.03
2022-08-28T07:06:36.145Z,101303.66
2022-08-28T07:09:05.335Z,101305.75
2022-08-28T07:11:33.937Z,101306.31
2022-08-28T07:14:01.101Z,101314.59
2022-08-28T07:16:31.010Z,101314.03
2022-08-28T07:18:58.764Z,101311.56
2022-08-28T07:21:26.269Z,101312.47
2022-08-28T07:23:53.376Z,101316.38
2022-08-28T07:26:23.933Z,101313.63
2022-08-28T07:28:51.406Z,101318.38
2022-08-28T07:31:21.500Z,101311.19
2022-08-28T07:33:48.722Z,101314.38
2022-08-28T07:36:29.388Z,101323.47
2022-08-28T07:38:58.036Z,101321.72
2022-08-28T07:41:27.494Z,101323.88
2022-08-28T07:44:13.159Z,101329.88
2022-08-28T07:46:41.110Z,101326.72
2022-08-28T07:49:08.696Z,101322.22
2022-08-28T07:51:35.958Z,101327.78
2022-08-28T07:54:03.855Z,101325.03
2022-08-28T07:56:31.637Z,101330.94
2022-08-28T07:58:59.176Z,101325.06
2022-08-28T08:01:30.610Z,101337.88
2022-08-28T08:04:01.514Z,101338.44
2022-08-28T08:06:34.040Z,101332.88
2022-08-28T08:09:01.755Z,101338.72
2022-08-28T08:11:28.184Z,101335.63
2022-08-28T08:14:03.740Z,101338.06
2022-08-28T08:16:36.247Z,101348.59
2022-08-28T08:19:03.908Z,101338.03
2022-08-28T08:21:30.843Z,101335.88
2022-08-28T08:23:57.730Z,101338.47
2022-08-28T08:26:26.202Z,101347.00
2022-08-28T08:28:52.554Z,101348.56
2022-08-28T08:31:18.965Z,101347.22
2022-08-28T08:33:49.605Z,101348.91
2022-08-28T08:36:19.342Z,101353.28
2022-08-28T08:38:46.169Z,101346.53
2022-08-28T08:41:20.179Z,101348.34
2022-08-28T08:43:58.452Z,101351.38
2022-08-28T08:46:46.124Z,101360.22
2022-08-28T08:49:20.524Z,101350.75
2022-08-28T08:52:12.154Z,101347.13
2022-08-28T08:54:50.971Z,101349.84
2022-08-28T08:57:18.211Z,101352.16
2022-08-28T08:59:44.627Z,101348.06
2022-08-28T09:02:17.991Z,101341.13
2022-08-28T09:04:52.467Z,101339.19
2022-08-28T09:07:40.527Z,101343.00
2022-08-28T09:10:12.210Z,101348.03
2022-08-28T09:13:03.067Z,101340.72
2022-08-28T09:15:42.637Z,101334.03
2022-08-28T09:18:14.018Z,101341.81
2022-08-28T09:20:41.879Z,101344.66
2022-08-28T09:23:12.809Z,101333.19
2022-08-28T09:25:51.553Z,101332.84
2022-08-28T09:28:25.754Z,101339.97
2022-08-28T09:31:00.479Z,101351.25
2022-08-28T09:33:32.993Z,101340.03
2022-08-28T09:36:32.929Z,101345.06
2022-08-28T09:39:20.348Z,101346.56
2022-08-28T09:42:41.189Z,101343.53
2022-08-28T09:45:21.142Z,101348.88
2022-08-28T09:47:54.587Z,101348.63
2022-08-28T09:50:37.337Z,101348.53
2022-08-28T09:53:09.772Z,101342.09
2022-08-28T09:55:48.764Z,101338.31
2022-08-28T09:58:15.733Z,101330.41
2022-08-28T10:00:54.443Z,101330.53
2022-08-28T10:03:33.869Z,101340.44
2022-08-28T10:06:04.502Z,101336.34
2022-08-28T10:08:43.071Z,101332.91
2022-08-28T10:11:23.789Z,101326.22
2022-08-28T10:14:05.199Z,101332.66
2022-08-28T10:16:51.005Z,101332.88
2022-08-28T10:19:41.745Z,101334.19
2022-08-28T10:22:34.719Z,101332.06
2022-08-28T10:25:20.531Z,101329.44
2022-08-28T10:28:26.968Z,101335.34
2022-08-28T10:31:08.989Z,101321.31
2022-08-28T10:33:51.554Z,101328.94
2022-08-28T10:36:33.215Z,101323.31
2022-08-28T10:39:33.829Z,101330.34
2022-08-28T10:42:03.097Z,101338.88
2022-08-28T10:44:44.979Z,101342.69
2022-08-28T10:47:13.237Z,101338.34
2022-08-28T10:49:46.763Z,101339.00
2022-08-28T10:52:38.913Z,101334.25
2022-08-28T10:55:08.080Z,101332.78
2022-08-28T10:58:03.312Z,101345.44
2022-08-28T11:00:30.211Z,101345.69
2022-08-28T11:03:04.734Z,101345.06
2022-08-28T11:05:52.458Z,101356.06
2022-08-28T11:08:40.290Z,101352.00
2022-08-28T11:11:13.295Z,101352.22
2022-08-28T11:13:45.889Z,101346.59
2022-08-28T11:16:32.633Z,101346.13
2022-08-28T11:19:17.802Z,101358.06
2022-08-28T11:21:53.020Z,101353.44
2022-08-28T11:24:28.541Z,101355.50
2022-08-28T11:27:16.930Z,101347.38
2022-08-28T11:30:11.103Z,101353.50
2022-08-28T11:32:46.862Z,101362.03
2022-08-28T11:35:34.816Z,101367.22
2022-08-28T11:38:01.276Z,101362.72
2022-08-28T11:40:30.468Z,101358.84
2022-08-28T11:43:16.097Z,101359.13
2022-08-28T11:45:46.890Z,101367.09
2022-08-28T11:48:24.227Z,101373.03
2022-08-28T11:51:07.473Z,101367.69
2022-08-28T11:54:04.750Z,101372.09
2022-08-28T11:57:03.886Z,101375.06
2022-08-28T11:59:55.242Z,101366.66
2022-08-28T12:02:39.961Z,101368.63
2022-08-28T12:05:11.329Z,101372.94
2022-08-28T12:07:40.325Z,101376.75
2022-08-28T12:10:22.052Z,101375.47
2022-08-28T12:12:49.782Z,101373.91
2022-08-28T12:15:28.340Z,101374.13
2022-08-28T12:17:54.697Z,101371.84
2022-08-28T12:20:28.154Z,101375.69
2022-08-28T12:23:01.311Z,101368.09
2022-08-28T12:25:42.300Z,101367.44
2022-08-28T12:28:27.630Z,101362.13
2022-08-28T12:31:06.309Z,101366.84
2022-08-28T12:33:42.151Z,101364.31
2022-08-28T12:36:15.956Z,101367.25
2022-08-28T12:38:49.492Z,101366.09
2022-08-28T12:41:17.816Z,101374.03
2022-08-28T12:43:48.243Z,101376.25
2022-08-28T12:46:28.892Z,101371.66
2022-08-28T12:49:01.217Z,101373.44
2022-08-28T12:51:37.051Z,101373.16
2022-08-28T12:54:08.868Z,101375.16
2022-08-28T12:56:37.623Z,101377.53
2022-08-28T12:59:27.253Z,101371.81
2022-08-28T13:01:54.721Z,101363.66
2022-08-28T13:04:31.549Z,101362.06
2022-08-28T13:07:10.677Z,101356.25
2022-08-28T13:09:37.861Z,101365.84
2022-08-28T13:12:07.228Z,101353.72
2022-08-28T13:14:44.097Z,101343.56
2022-08-28T13:17:14.290Z,101345.41
2022-08-28T13:19:41.580Z,101357.22
2022-08-28T13:22:29.555Z,101348.00
2022-08-28T13:25:01.656Z,101347.19
2022-08-28T13:27:28.605Z,101338.91
2022-08-28T13:30:04.728Z,101352.66
2022-08-28T13:32:33.942Z,101349.00
2022-08-28T13:35:13.487Z,101349.84
2022-08-28T13:37:45.806Z,101352.06
2022-08-28T13:40:38.197Z,101340.78
2022-08-28T13:43:06.936Z,101352.28
2022-08-28T13:45:42.646Z,101348.13
2022-08-28T13:48:11.910Z,101341.44
2022-08-28T13:50:41.606Z,101345.72
2022-08-28T13:53:08.067Z,101350.34
2022-08-28T13:55:34.557Z,101352.50
2022-08-28T13:58:00.924Z,101350.34
2022-08-28T14:00:30.003Z,101350.56
2022-08-28T14:03:16.417Z,101356.28
2022-08-28T14:05:46.979Z,101353.63
2022-08-28T14:08:13.487Z,101353.91
2022-08-28T14:10:40.338Z,101351.06
2022-08-28T14:13:07.005Z,101353.31
2022-08-28T14:15:33.499Z,101352.06
2022-08-28T14:17:59.904Z,101351.13
2022-08-28T14:20:26.509Z,101353.34
2022-08-28T14:22:52.887Z,101357.44
2022-08-28T14:25:19.288Z,101357.78
2022-08-28T14:27:46.232Z,101362.22
2022-08-28T14:30:13.008Z,101356.94
2022-08-28T14:32:39.367Z,101354.69
2022-08-28T14:35:06.577Z,101354.94
2022-08-28T14:37:33.233Z,101353.19
2022-08-28T14:39:59.903Z,101349.78
2022-08-28T14:42:26.844Z,101351.63
2022-08-28T14:44:53.807Z,101358.16
2022-08-28T14:47:20.391Z,101347.63
2022-08-28T14:49:46.855Z,101349.28
2022-08-28T14:52:13.420Z,101353.78
2022-08-28T14:54:40.448Z,101357.97
2022-08-28T14:57:06.844Z,101351.97
2022-08-28T14:59:33.892Z,101356.22
2022-08-28T15:02:01.683Z,101352.63
2022-08-28T15:04:34.476Z,101343.84
2022-08-28T15:07:05.344Z,101348.47
2022-08-28T15:09:35.522Z,101352.44
2022-08-28T15:12:02.084Z,101349.47
2022-08-28T15:14:28.515Z,101357.22
2022-08-28T15:16:54.925Z,101355.25
2022-08-28T15:19:23.223Z,101354.72
2022-08-28T15:21:52.944Z,101360.19
2022-08-28T15:24:23.102Z,101358.44
2022-08-28T15:26:50.443Z,101362.16
2022-08-28T15:29:17.257Z,101369.34
2022-08-28T15:31:47.432Z,101363.59
2022-08-28T15:34:17.812Z,101364.50
2022-08-28T15:36:45.341Z,101360.69
2022-08-28T15:39:40.946Z,101355.59
2022-08-28T15:42:08.051Z,101356.63
2022-08-28T15:44:34.534Z,101357.53
2022-08-28T15:47:02.910Z,101359.41
2022-08-28T15:49:32.198Z,101363.97
2022-08-28T15:52:03.008Z,101366.34
2022-08-28T15:54:31.928Z,101363.84
2022-08-28T15:56:58.484Z,101362.25
2022-08-28T15:59:24.888Z,101362.84
2022-08-28T16:02:12.190Z,101362.44
2022-08-28T16:04:38.756Z,101364.69
2022-08-28T16:07:05.228Z,101359.94
2022-08-28T16:09:31.672Z,101361.38
2022-08-28T16:11:58.246Z,101360.25
2022-08-28T16:14:24.634Z,101360.59
2022-08-28T16:16:51.087Z,101361.56
2022-08-28T16:19:17.738Z,101361.69
2022-08-28T16:21:44.155Z,101369.56
2022-08-28T16:24:10.536Z,101363.56
2022-08-28T16:26:36.896Z,101372.41
2022-08-28T16:29:03.557Z,101370.81
2022-08-28T16:31:33.786Z,101374.00
2022-08-28T16:34:01.610Z,101375.25
2022-08-28T16:36:28.679Z,101376.53
2022-08-28T16:39:00.293Z,101381.78
2022-08-28T16:41:31.931Z,101380.72
2022-08-28T16:43:58.828Z,101380.25
2022-08-28T16:46:26.446Z,101377.59
2022-08-28T16:48:53.810Z,101385.06
2022-08-28T16:51:20.803Z,101385.31
2022-08-28T16:53:47.678Z,101387.38
2022-08-28T16:56:17.260Z,101386.19
2022-08-28T16:58:44.798Z,101388.69
2022-08-28T17:01:13.805Z,101390.69
2022-08-28T17:03:41.600Z,101392.56
2022-08-28T17:06:15.707Z,101382.66
2022-08-28T17:08:42.639Z,101391.44
2022-08-28T17:11:09.010Z,101387.38
2022-08-28T17:13:36.199Z,101384.09
2022-08-28T17:16:03.309Z,101389.19
2022-08-28T17:18:29.954Z,101392.13
2022-08-28T17:21:15.232Z,101383.22
2022-08-28T17:23:41.723Z,101386.44
2022-08-28T17:26:08.514Z,101387.19
2022-08-28T17:28:35.060Z,101388.34
2022-08-28T17:31:01.787Z,101386.41
2022-08-28T17:33:28.384Z,101386.63
2022-08-28T17:35:55.602Z,101383.31
2022-08-28T17:38:22.149Z,101386.81
2022-08-28T17:40:48.539Z,101393.75
2022-08-28T17:43:14.940Z,101393.75
2022-08-28T17:45:41.336Z,101400.94
2022-08-28T17:48:07.779Z,101396.16
2022-08-28T17:50:34.367Z,101400.13
2022-08-28T17:53:00.791Z,101397.75
2022-08-28T17:55:29.273Z,101407.19
2022-08-28T17:57:55.636Z,101404.34
2022-08-28T18:00:22.228Z,101413.78
2022-08-28T18:02:51.266Z,101412.91
2022-08-28T18:05:18.000Z,101406.25
2022-08-28T18:07:44.376Z,101407.56
2022-08-28T18:10:11.869Z,101413.03
2022-08-28T18:12:39.822Z,101408.75
2022-08-28T18:15:09.005Z,101410.50
2022-08-28T18:17:36.912Z,101419.03
2022-08-28T18:20:06.214Z,101422.66
2022-08-28T18:22:32.621Z,101418.34
2022-08-28T18:24:59.048Z,101424.47
2022-08-28T18:27:27.740Z,101428.84
2022-08-28T18:29:54.340Z,101427.63
2022-08-28T18:32:20.734Z,101417.00
2022-08-28T18:34:47.162Z,101424.00
2022-08-28T18:37:13.665Z,101432.22
2022-08-28T18:39:40.144Z,101418.38
2022-08-28T18:42:09.327Z,101434.09
2022-08-28T18:44:35.696Z,101434.19
2022-08-28T18:47:02.132Z,101433.97
2022-08-28T18:49:28.755Z,101429.25
2022-08-28T18:51:55.337Z,101439.91
2022-08-28T18:54:22.396Z,101441.59
2022-08-28T18:56:50.467Z,101433.97
2022-08-28T18:59:17.382Z,101432.84
2022-08-28T19:01:44.354Z,101439.69
2022-08-28T19:04:10.866Z,101441.75
2022-08-28T19:06:37.336Z,101435.41
2022-08-28T19:09:05.511Z,101442.69
2022-08-28T19:11:32.072Z,101443.81
2022-08-28T19:13:59.408Z,101449.03
2022-08-28T19:16:31.593Z,101444.84
2022-08-28T19:18:58.019Z,101444.03
2022-08-28T19:21:24.725Z,101445.94
2022-08-28T19:23:56.167Z,101450.66
2022-08-28T19:26:24.450Z,101448.25
2022-08-28T19:28:51.435Z,101444.84
2022-08-28T19:31:18.203Z,101453.53
2022-08-28T19:33:46.271Z,101441.47
2022-08-28T19:36:13.639Z,101443.31
2022-08-28T19:38:40.680Z,101442.25
2022-08-28T19:41:08.891Z,101441.31
2022-08-28T19:43:44.221Z,101447.69
2022-08-28T19:46:18.253Z,101460.97
2022-08-28T19:48:47.637Z,101454.81
2022-08-28T19:51:22.320Z,101451.31
2022-08-28T19:53:56.158Z,101452.34
2022-08-28T19:56:26.662Z,101453.19
2022-08-28T19:58:54.739Z,101450.94
2022-08-28T20:01:21.289Z,101458.88
2022-08-28T20:03:47.930Z,101454.72
2022-08-28T20:06:14.327Z,101454.09
2022-08-28T20:08:40.698Z,101459.44
2022-08-28T20:11:07.280Z,101465.63
2022-08-28T20:13:33.718Z,101460.50
2022-08-28T20:16:04.372Z,101460.38
2022-08-28T20:18:30.810Z,101449.84
2022-08-28T20:20:57.200Z,101457.78
2022-08-28T20:23:23.780Z,101453.41
2022-08-28T20:25:51.101Z,101447.03
2022-08-28T20:28:18.537Z,101451.19
2022-08-28T20:30:46.651Z,101446.81
2022-08-28T20:33:13.224Z,101448.63
2022-08-28T20:35:40.048Z,101454.91
2022-08-28T20:38:06.440Z,101452.28
2022-08-28T20:40:32.976Z,101452.06
2022-08-28T20:43:00.428Z,101450.19
2022-08-28T20:45:27.179Z,101448.34
2022-08-28T20:47:53.821Z,101447.38
2022-08-28T20:50:20.450Z,101451.81
2022-08-28T20:52:46.843Z,101448.97
2022-08-28T20:55:14.040Z,101452.53
2022-08-28T20:57:40.954Z,101448.88
2022-08-28T21:00:09.587Z,101454.00
2022-08-28T21:02:37.077Z,101461.09
2022-08-28T21:05:04.178Z,101463.97
2022-08-28T21:07:31.038Z,101457.03
2022-08-28T21:10:05.204Z,101452.72
2022-08-28T21:12:34.748Z,101457.22
2022-08-28T21:15:01.309Z,101451.78
2022-08-28T21:17:29.796Z,101455.00
2022-08-28T21:20:10.265Z,101454.25
2022-08-28T21:22:37.007Z,101452.56
2022-08-28T21:25:05.549Z,101451.69
2022-08-28T21:27:31.942Z,101459.78
2022-08-28T21:30:00.269Z,101466.84
2022-08-28T21:32:28.594Z,101466.94
2022-08-28T21:34:55.074Z,101475.88
2022-08-28T21:37:21.555Z,101474.88
2022-08-28T21:39:47.978Z,101478.69
2022-08-28T21:42:14.428Z,101477.09
2022-08-28T21:44:40.894Z,101477.88
2022-08-28T21:47:14.851Z,101479.47
2022-08-28T21:49:41.483Z,101480.09
2022-08-28T21:52:07.909Z,101484.50
2022-08-28T21:54:34.496Z,101477.59
2022-08-28T21:57:00.848Z,101485.38
2022-08-28T21:59:35.958Z,101479.09
2022-08-28T22:02:04.457Z,101487.13
2022-08-28T22:04:31.046Z,101492.34
2022-08-28T22:06:57.535Z,101495.03
2022-08-28T22:09:23.986Z,101501.88
2022-08-28T22:11:50.390Z,101504.25
2022-08-28T22:14:16.730Z,101497.31
2022-08-28T22:16:44.639Z,101512.25
2022-08-28T22:19:11.028Z,101497.31
2022-08-28T22:21:56.761Z,101503.78
2022-08-28T22:24:23.557Z,101508.91
2022-08-28T22:26:50.174Z,101514.25
2022-08-28T22:29:23.724Z,101508.97
2022-08-28T22:31:50.297Z,101502.78
2022-08-28T22:34:16.721Z,101505.19
2022-08-28T22:36:43.074Z,101508.47
2022-08-28T22:39:09.508Z,101509.53
2022-08-28T22:41:37.270Z,101508.97
2022-08-28T22:44:03.846Z,101499.25
2022-08-28T22:46:30.199Z,101501.16
2022-08-28T22:48:56.673Z,101501.81
2022-08-28T22:51:23.083Z,101508.75
2022-08-28T22:53:49.485Z,101497.56
2022-08-28T22:56:16.851Z,101496.56
2022-08-28T22:58:43.838Z,101492.84
2022-08-28T23:01:18.040Z,101492.84
2022-08-28T23:03:45.315Z,101487.47
2022-08-28T23:06:11.917Z,101494.38
2022-08-28T23:08:38.407Z,101487.22
2022-08-28T23:11:05.030Z,101487.28
2022-08-28T23:13:32.911Z,101484.59
2022-08-28T23:16:00.373Z,101488.16
2022-08-28T23:18:27.705Z,101479.13
2022-08-28T23:20:54.263Z,101481.91
2022-08-28T23:23:20.880Z,101483.53
2022-08-28T23:25:47.275Z,101479.88
2022-08-28T23:28:13.669Z,101484.16
2022-08-28T23:30:41.270Z,101475.59
2022-08-28T23:33:23.064Z,101476.56
2022-08-28T23:35:51.262Z,101473.00
2022-08-28T23:38:17.754Z,101479.00
2022-08-28T23:40:44.369Z,101470.34
2022-08-28T23:43:11.095Z,101471.94
2022-08-28T23:45:40.205Z,101472.81
2022-08-28T23:48:07.432Z,101468.28
2022-08-28T23:50:34.157Z,101456.78
2022-08-28T23:53:01.208Z,101452.88
2022-08-28T23:55:27.865Z,101456.38
2022-08-28T23:57:54.313Z,101454.47
